sensor_id;sensor_type;location;lat;lon;timestamp;P1;durP1;ratioP1;P2;durP2;ratioP2
67146;SDS011;54061;52.036;5.558;2023-04-23T19:41:09;3.53;;;1.35;;
67146;SDS011;54061;52.036;5.558;2023-04-23T19:43:35;2.05;;;1.30;;
67146;SDS011;54061;52.036;5.558;2023-04-23T19:46:00;2.88;;;1.35;;
67146;SDS011;54061;52.036;5.558;2023-04-23T19:48:26;28.15;;;2.00;;
67146;SDS011;54061;52.036;5.558;2023-04-23T19:50:52;1.13;;;1.00;;
67146;SDS011;54061;52.036;5.558;2023-04-23T19:53:18;2.92;;;1.35;;
67146;SDS011;54061;52.036;5.558;2023-04-23T19:55:45;1.63;;;1.00;;
67146;SDS011;54061;52.036;5.558;2023-04-23T19:58:11;3.30;;;1.30;;
67146;SDS011;54061;52.036;5.558;2023-04-23T20:00:36;3.75;;;1.30;;
67146;SDS011;54061;52.036;5.558;2023-04-23T20:03:04;2.42;;;1.23;;
67146;SDS011;54061;52.036;5.558;2023-04-23T20:05:31;3.53;;;1.23;;
67146;SDS011;54061;52.036;5.558;2023-04-23T20:07:56;4.38;;;1.20;;
67146;SDS011;54061;52.036;5.558;2023-04-23T20:10:24;3.30;;;1.25;;
67146;SDS011;54061;52.036;5.558;2023-04-23T20:12:54;2.38;;;1.02;;
67146;SDS011;54061;52.036;5.558;2023-04-23T20:15:20;1.92;;;1.13;;
67146;SDS011;54061;52.036;5.558;2023-04-23T20:17:48;1.92;;;1.00;;
67146;SDS011;54061;52.036;5.558;2023-04-23T20:20:14;3.38;;;1.10;;
67146;SDS011;54061;52.036;5.558;2023-04-23T20:22:40;2.72;;;1.23;;
67146;SDS011;54061;52.036;5.558;2023-04-23T20:25:05;3.70;;;1.00;;
67146;SDS011;54061;52.036;5.558;2023-04-23T20:27:31;1.10;;;0.88;;
67146;SDS011;54061;52.036;5.558;2023-04-23T20:29:57;2.25;;;1.15;;
67146;SDS011;54061;52.036;5.558;2023-04-23T20:32:23;1.33;;;0.93;;
67146;SDS011;54061;52.036;5.558;2023-04-23T20:34:49;1.88;;;0.80;;
67146;SDS011;54061;52.036;5.558;2023-04-23T20:37:14;1.30;;;0.90;;
67146;SDS011;54061;52.036;5.558;2023-04-23T20:39:45;3.15;;;0.90;;
67146;SDS011;54061;52.036;5.558;2023-04-23T20:42:11;1.38;;;0.70;;
67146;SDS011;54061;52.036;5.558;2023-04-23T20:44:36;0.85;;;0.70;;
67146;SDS011;54061;52.036;5.558;2023-04-23T20:47:02;3.47;;;0.95;;
67146;SDS011;54061;52.036;5.558;2023-04-23T20:49:31;3.75;;;0.90;;
67146;SDS011;54061;52.036;5.558;2023-04-23T20:51:57;1.42;;;0.90;;
67146;SDS011;54061;52.036;5.558;2023-04-23T20:54:23;3.28;;;1.00;;
67146;SDS011;54061;52.036;5.558;2023-04-23T20:56:48;2.15;;;0.80;;
67146;SDS011;54061;52.036;5.558;2023-04-23T20:59:17;0.80;;;0.80;;
67146;SDS011;54061;52.036;5.558;2023-04-23T21:01:44;1.17;;;0.77;;
67146;SDS011;54061;52.036;5.558;2023-04-23T21:04:10;1.10;;;0.98;;
67146;SDS011;54061;52.036;5.558;2023-04-23T21:06:35;1.42;;;0.93;;
67146;SDS011;54061;52.036;5.558;2023-04-23T21:09:01;3.38;;;0.75;;
67146;SDS011;54061;52.036;5.558;2023-04-23T21:11:27;2.85;;;0.80;;
67146;SDS011;54061;52.036;5.558;2023-04-23T21:13:53;0.93;;;0.80;;
67146;SDS011;54061;52.036;5.558;2023-04-23T21:16:19;2.22;;;1.02;;
67146;SDS011;54061;52.036;5.558;2023-04-23T21:18:45;0.80;;;0.63;;
67146;SDS011;54061;52.036;5.558;2023-04-23T21:21:11;1.23;;;0.63;;
67146;SDS011;54061;52.036;5.558;2023-04-23T21:23:36;0.73;;;0.70;;
67146;SDS011;54061;52.036;5.558;2023-04-23T21:26:02;1.42;;;0.70;;
67146;SDS011;54061;52.036;5.558;2023-04-23T21:28:27;0.60;;;0.60;;
67146;SDS011;54061;52.036;5.558;2023-04-23T21:30:53;0.60;;;0.60;;
67146;SDS011;54061;52.036;5.558;2023-04-23T21:33:21;4.13;;;0.68;;
67146;SDS011;54061;52.036;5.558;2023-04-23T21:35:48;1.23;;;0.80;;
67146;SDS011;54061;52.036;5.558;2023-04-23T21:38:17;2.03;;;0.68;;
67146;SDS011;54061;52.036;5.558;2023-04-23T21:40:43;0.70;;;0.60;;
67146;SDS011;54061;52.036;5.558;2023-04-23T21:43:09;0.70;;;0.50;;
67146;SDS011;54061;52.036;5.558;2023-04-23T21:45:35;0.80;;;0.60;;
67146;SDS011;54061;52.036;5.558;2023-04-23T21:48:01;0.60;;;0.60;;
67146;SDS011;54061;52.036;5.558;2023-04-23T21:50:28;0.68;;;0.52;;
67146;SDS011;54061;52.036;5.558;2023-04-23T21:52:55;0.50;;;0.50;;
67146;SDS011;54061;52.036;5.558;2023-04-23T21:55:25;0.75;;;0.63;;
67146;SDS011;54061;52.036;5.558;2023-04-23T21:57:52;0.70;;;0.50;;
67146;SDS011;54061;52.036;5.558;2023-04-23T22:00:19;0.82;;;0.68;;
67146;SDS011;54061;52.036;5.558;2023-04-23T22:02:45;1.85;;;0.57;;
67146;SDS011;54061;52.036;5.558;2023-04-23T22:05:14;0.52;;;0.50;;
67146;SDS011;54061;52.036;5.558;2023-04-23T22:07:44;0.50;;;0.50;;
67146;SDS011;54061;52.036;5.558;2023-04-23T22:10:10;0.50;;;0.50;;
67146;SDS011;54061;52.036;5.558;2023-04-23T22:12:37;1.08;;;0.50;;
67146;SDS011;54061;52.036;5.558;2023-04-23T22:15:05;2.08;;;0.52;;
67146;SDS011;54061;52.036;5.558;2023-04-23T22:17:31;1.02;;;0.50;;
67146;SDS011;54061;52.036;5.558;2023-04-23T22:20:00;0.50;;;0.50;;
67146;SDS011;54061;52.036;5.558;2023-04-23T22:22:29;0.47;;;0.47;;
67146;SDS011;54061;52.036;5.558;2023-04-23T22:24:55;0.50;;;0.40;;
67146;SDS011;54061;52.036;5.558;2023-04-23T22:27:21;0.40;;;0.40;;
67146;SDS011;54061;52.036;5.558;2023-04-23T22:29:46;0.38;;;0.38;;
67146;SDS011;54061;52.036;5.558;2023-04-23T22:32:12;0.40;;;0.40;;
67146;SDS011;54061;52.036;5.558;2023-04-23T22:34:37;0.65;;;0.38;;
67146;SDS011;54061;52.036;5.558;2023-04-23T22:37:03;0.60;;;0.60;;
67146;SDS011;54061;52.036;5.558;2023-04-23T22:39:28;0.95;;;0.40;;
67146;SDS011;54061;52.036;5.558;2023-04-23T22:41:54;0.63;;;0.50;;
67146;SDS011;54061;52.036;5.558;2023-04-23T22:44:20;1.30;;;0.40;;
67146;SDS011;54061;52.036;5.558;2023-04-23T22:46:46;0.73;;;0.45;;
67146;SDS011;54061;52.036;5.558;2023-04-23T22:49:11;0.73;;;0.40;;
67146;SDS011;54061;52.036;5.558;2023-04-23T22:51:38;1.05;;;0.50;;
67146;SDS011;54061;52.036;5.558;2023-04-23T22:54:03;1.15;;;0.50;;
67146;SDS011;54061;52.036;5.558;2023-04-23T22:56:29;0.30;;;0.30;;
67146;SDS011;54061;52.036;5.558;2023-04-23T22:58:55;0.47;;;0.35;;
67146;SDS011;54061;52.036;5.558;2023-04-23T23:01:21;1.20;;;0.40;;
67146;SDS011;54061;52.036;5.558;2023-04-23T23:03:46;0.77;;;0.40;;
67146;SDS011;54061;52.036;5.558;2023-04-23T23:06:12;0.85;;;0.30;;
67146;SDS011;54061;52.036;5.558;2023-04-23T23:08:37;0.63;;;0.38;;
67146;SDS011;54061;52.036;5.558;2023-04-23T23:11:03;0.93;;;0.30;;
67146;SDS011;54061;52.036;5.558;2023-04-23T23:13:28;1.15;;;0.50;;
67146;SDS011;54061;52.036;5.558;2023-04-23T23:15:54;0.75;;;0.50;;
67146;SDS011;54061;52.036;5.558;2023-04-23T23:18:24;0.70;;;0.50;;
67146;SDS011;54061;52.036;5.558;2023-04-23T23:20:50;1.88;;;0.57;;
67146;SDS011;54061;52.036;5.558;2023-04-23T23:23:15;0.30;;;0.30;;
67146;SDS011;54061;52.036;5.558;2023-04-23T23:25:41;1.30;;;0.28;;
67146;SDS011;54061;52.036;5.558;2023-04-23T23:28:06;0.98;;;0.30;;
67146;SDS011;54061;52.036;5.558;2023-04-23T23:30:32;1.25;;;0.30;;
67146;SDS011;54061;52.036;5.558;2023-04-23T23:32:57;0.93;;;0.30;;
67146;SDS011;54061;52.036;5.558;2023-04-23T23:35:23;0.80;;;0.35;;
67146;SDS011;54061;52.036;5.558;2023-04-23T23:37:48;1.60;;;0.30;;
67146;SDS011;54061;52.036;5.558;2023-04-23T23:40:14;0.47;;;0.30;;
67146;SDS011;54061;52.036;5.558;2023-04-23T23:42:40;0.68;;;0.30;;
67146;SDS011;54061;52.036;5.558;2023-04-23T23:45:06;0.47;;;0.30;;
67146;SDS011;54061;52.036;5.558;2023-04-23T23:47:34;1.75;;;0.38;;
67146;SDS011;54061;52.036;5.558;2023-04-23T23:49:59;0.70;;;0.35;;
67146;SDS011;54061;52.036;5.558;2023-04-23T23:52:25;0.35;;;0.28;;
67146;SDS011;54061;52.036;5.558;2023-04-23T23:54:50;0.63;;;0.28;;
67146;SDS011;54061;52.036;5.558;2023-04-23T23:57:16;0.40;;;0.40;;
67146;SDS011;54061;52.036;5.558;2023-04-23T23:59:41;0.43;;;0.38;;
